createdAt,value
2023-02-22T00:01:51.261Z,101126.25
2023-02-22T00:04:21.670Z,101133.75
2023-02-22T00:06:51.681Z,101135.69
2023-02-22T00:09:22.162Z,101127.16
2023-02-22T00:11:52.221Z,101127.44
2023-02-22T00:14:22.199Z,101122.78
2023-02-22T00:16:52.235Z,101123.59
2023-02-22T00:19:22.323Z,101121.44
2023-02-22T00:21:53.555Z,101128.91
2023-02-22T00:24:24.870Z,101117.66
2023-02-22T00:26:56.409Z,101119.00
2023-02-22T00:29:26.818Z,101124.56
2023-02-22T00:31:56.880Z,101119.59
2023-02-22T00:34:26.915Z,101123.16
2023-02-22T00:36:56.982Z,101120.44
2023-02-22T00:39:27.017Z,101117.16
2023-02-22T00:41:57.959Z,101120.75
2023-02-22T00:44:28.016Z,101117.75
2023-02-22T00:46:58.027Z,101116.13
2023-02-22T00:49:28.126Z,101121.34
2023-02-22T00:51:58.170Z,101124.94
2023-02-22T00:54:28.176Z,101122.16
2023-02-22T00:56:58.287Z,101116.97
2023-02-22T00:59:28.313Z,101121.63
2023-02-22T01:01:58.649Z,101127.16
2023-02-22T01:04:28.970Z,101127.97
2023-02-22T01:07:00.647Z,101130.22
2023-02-22T01:09:30.929Z,101127.78
2023-02-22T01:12:02.430Z,101126.41
2023-02-22T01:14:32.545Z,101117.38
2023-02-22T01:17:02.568Z,101121.00
2023-02-22T01:19:32.593Z,101116.59
2023-02-22T01:22:02.678Z,101121.28
2023-02-22T01:24:32.738Z,101111.41
2023-02-22T01:27:02.732Z,101119.66
2023-02-22T01:29:32.776Z,101118.84
2023-02-22T01:32:03.364Z,101117.47
2023-02-22T01:34:33.787Z,101124.06
2023-02-22T01:37:04.284Z,101116.63
2023-02-22T01:39:34.406Z,101116.09
2023-02-22T01:42:04.619Z,101117.47
2023-02-22T01:44:38.211Z,101113.06
2023-02-22T01:47:11.557Z,101107.84
2023-02-22T01:49:52.197Z,101111.41
2023-02-22T01:52:22.859Z,101100.97
2023-02-22T01:55:00.292Z,101110.56
2023-02-22T01:57:37.812Z,101102.56
2023-02-22T02:00:17.000Z,101100.91
2023-02-22T02:03:07.065Z,101099.25
2023-02-22T02:05:39.231Z,101097.06
2023-02-22T02:08:51.605Z,101100.06
2023-02-22T02:11:26.876Z,101101.19
2023-02-22T02:13:58.921Z,101094.03
2023-02-22T02:16:46.951Z,101092.66
2023-02-22T02:20:08.310Z,101094.53
2023-02-22T02:23:29.126Z,101108.81
2023-02-22T02:26:54.302Z,101095.34
2023-02-22T02:30:09.061Z,101096.47
2023-02-22T02:33:17.201Z,101092.66
2023-02-22T02:36:44.661Z,101089.59
2023-02-22T02:39:43.673Z,101085.50
2023-02-22T02:42:25.740Z,101085.75
2023-02-22T02:45:17.730Z,101097.53
2023-02-22T02:47:59.243Z,101088.19
2023-02-22T02:50:47.220Z,101088.19
2023-02-22T02:53:30.632Z,101096.97
2023-02-22T02:56:01.023Z,101086.56
2023-02-22T02:58:31.740Z,101093.44
2023-02-22T03:01:06.953Z,101087.38
2023-02-22T03:04:25.199Z,101086.03
2023-02-22T03:07:10.195Z,101084.41
2023-02-22T03:10:26.599Z,101087.72
2023-02-22T03:14:08.915Z,101085.22
2023-02-22T03:16:54.931Z,101089.09
2023-02-22T03:19:40.534Z,101086.06
2023-02-22T03:22:24.914Z,101084.97
2023-02-22T03:25:50.702Z,101080.31
2023-02-22T03:28:28.006Z,101082.78
2023-02-22T03:31:20.271Z,101083.34
2023-02-22T03:34:16.040Z,101074.56
2023-02-22T03:36:59.162Z,101073.75
2023-02-22T03:39:32.393Z,101077.88
2023-02-22T03:42:18.768Z,101081.97
2023-02-22T03:44:58.126Z,101091.84
2023-02-22T03:47:42.659Z,101087.75
2023-02-22T03:50:26.851Z,101089.69
2023-02-22T03:53:01.102Z,101087.50
2023-02-22T03:55:31.570Z,101084.19
2023-02-22T03:58:12.055Z,101082.25
2023-02-22T04:00:44.664Z,101080.06
2023-02-22T04:03:13.598Z,101082.28
2023-02-22T04:05:42.357Z,101080.09
2023-02-22T04:08:10.390Z,101072.13
2023-02-22T04:10:38.797Z,101080.09
2023-02-22T04:13:07.211Z,101074.06
2023-02-22T04:15:35.918Z,101082.00
2023-02-22T04:18:04.590Z,101076.50
2023-02-22T04:20:32.670Z,101081.19
2023-02-22T04:23:01.344Z,101073.75
2023-02-22T04:25:29.512Z,101078.16
2023-02-22T04:27:58.230Z,101080.66
2023-02-22T04:30:26.132Z,101075.41
2023-02-22T04:32:54.488Z,101076.50
2023-02-22T04:35:24.201Z,101088.06
2023-02-22T04:37:51.313Z,101075.69
2023-02-22T04:40:20.303Z,101082.84
2023-02-22T04:42:48.195Z,101078.16
2023-02-22T04:45:16.575Z,101074.31
2023-02-22T04:47:45.031Z,101071.03
2023-02-22T04:50:14.382Z,101075.16
2023-02-22T04:52:41.860Z,101064.72
2023-02-22T04:55:10.462Z,101068.56
2023-02-22T04:57:38.670Z,101067.47
2023-02-22T05:00:10.388Z,101069.38
2023-02-22T05:02:41.002Z,101067.47
2023-02-22T05:05:11.247Z,101068.28
2023-02-22T05:07:41.344Z,101068.81
2023-02-22T05:10:13.923Z,101069.63
2023-02-22T05:12:44.047Z,101067.44
2023-02-22T05:15:22.273Z,101066.09
2023-02-22T05:17:53.732Z,101073.22
2023-02-22T05:20:30.948Z,101059.22
2023-02-22T05:23:03.665Z,101058.91
2023-02-22T05:25:33.903Z,101055.88
2023-02-22T05:28:13.780Z,101058.91
2023-02-22T05:30:43.990Z,101058.34
2023-02-22T05:33:14.118Z,101069.63
2023-02-22T05:35:44.649Z,101065.78
2023-02-22T05:38:15.819Z,101063.88
2023-02-22T05:40:45.872Z,101060.84
2023-02-22T05:43:16.307Z,101059.72
2023-02-22T05:45:46.503Z,101058.91
2023-02-22T05:48:16.801Z,101062.47
2023-02-22T05:50:47.293Z,101063.28
2023-02-22T05:53:17.485Z,101063.03
2023-02-22T05:55:47.475Z,101067.41
2023-02-22T05:58:17.904Z,101067.94
2023-02-22T06:00:48.209Z,101068.81
2023-02-22T06:03:18.262Z,101072.38
2023-02-22T06:05:48.634Z,101073.72
2023-02-22T06:08:18.785Z,101073.72
2023-02-22T06:10:48.800Z,101081.44
2023-02-22T06:13:18.799Z,101087.47
2023-02-22T06:15:48.900Z,101085.53
2023-02-22T06:18:18.904Z,101093.50
2023-02-22T06:20:48.912Z,101094.59
2023-02-22T06:23:19.061Z,101089.94
2023-02-22T06:25:49.246Z,101087.72
2023-02-22T06:28:19.394Z,101087.72
2023-02-22T06:30:49.433Z,101087.72
2023-02-22T06:33:19.527Z,101092.69
2023-02-22T06:35:49.573Z,101088.81
2023-02-22T06:38:26.288Z,101100.09
2023-02-22T06:40:56.500Z,101094.84
2023-02-22T06:43:26.609Z,101088.50
2023-02-22T06:45:56.634Z,101095.69
2023-02-22T06:48:26.682Z,101099.25
2023-02-22T06:50:56.828Z,101103.88
2023-02-22T06:53:26.875Z,101097.00
2023-02-22T06:55:56.966Z,101109.13
2023-02-22T06:58:27.246Z,101116.78
2023-02-22T07:00:57.360Z,101109.34
2023-02-22T07:03:27.510Z,101114.84
2023-02-22T07:05:57.595Z,101120.38
2023-02-22T07:08:27.799Z,101122.53
2023-02-22T07:10:57.939Z,101126.38
2023-02-22T07:13:27.982Z,101123.09
2023-02-22T07:15:56.413Z,101126.06
2023-02-22T07:18:24.759Z,101109.84
2023-02-22T07:20:53.457Z,101118.91
2023-02-22T07:23:21.798Z,101118.56
2023-02-22T07:25:50.530Z,101124.88
2023-02-22T07:28:18.562Z,101127.38
2023-02-22T07:30:46.922Z,101120.50
2023-02-22T07:33:15.249Z,101121.59
2023-02-22T07:35:51.081Z,101122.09
2023-02-22T07:38:21.453Z,101119.28
2023-02-22T07:40:51.479Z,101121.72
2023-02-22T07:43:28.549Z,101118.13
2023-02-22T07:46:02.997Z,101118.41
2023-02-22T07:48:33.068Z,101121.94
2023-02-22T07:51:03.388Z,101124.41
2023-02-22T07:53:34.428Z,101116.94
2023-02-22T07:56:08.882Z,101116.09
2023-02-22T07:58:38.931Z,101121.06
2023-02-22T08:01:07.367Z,101118.22
2023-02-22T08:03:37.918Z,101126.25
2023-02-22T08:06:08.738Z,101126.25
2023-02-22T08:08:38.990Z,101130.00
2023-02-22T08:11:09.241Z,101129.16
2023-02-22T08:13:39.962Z,101131.91
2023-02-22T08:16:09.994Z,101133.53
2023-02-22T08:18:41.148Z,101130.78
2023-02-22T08:21:11.259Z,101128.31
2023-02-22T08:23:41.249Z,101128.06
2023-02-22T08:26:17.823Z,101136.56
2023-02-22T08:28:49.405Z,101124.50
2023-02-22T08:31:19.837Z,101123.75
2023-02-22T08:33:50.123Z,101130.97
2023-02-22T08:36:20.184Z,101132.25
2023-02-22T08:38:50.028Z,101124.50
2023-02-22T08:41:19.918Z,101125.06
2023-02-22T08:43:49.933Z,101121.16
2023-02-22T08:46:19.710Z,101120.44
2023-02-22T08:48:53.897Z,101122.91
2023-02-22T08:51:27.668Z,101120.06
2023-02-22T08:53:55.573Z,101121.91
2023-02-22T08:56:25.491Z,101124.06
2023-02-22T08:58:56.009Z,101123.19
2023-02-22T09:01:32.850Z,101113.91
2023-02-22T09:04:03.258Z,101116.31
2023-02-22T09:06:33.708Z,101122.81
2023-02-22T09:09:03.818Z,101121.25
2023-02-22T09:11:34.139Z,101127.41
2023-02-22T09:14:03.679Z,101119.72
2023-02-22T09:16:33.637Z,101120.66
2023-02-22T09:19:04.184Z,101123.50
2023-02-22T09:21:33.872Z,101128.97
2023-02-22T09:24:08.500Z,101126.09
2023-02-22T09:26:39.455Z,101121.69
2023-02-22T09:29:10.586Z,101125.56
2023-02-22T09:31:41.973Z,101114.81
2023-02-22T09:34:15.786Z,101119.38
2023-02-22T09:36:49.864Z,101119.16
2023-02-22T09:39:19.338Z,101112.91
2023-02-22T09:42:02.697Z,101117.91
2023-02-22T09:45:01.184Z,101113.78
2023-02-22T09:47:45.107Z,101107.81
2023-02-22T09:50:35.699Z,101107.31
2023-02-22T09:53:41.946Z,101105.28
2023-02-22T09:56:20.141Z,101108.56
2023-02-22T09:59:00.423Z,101112.13
2023-02-22T10:01:46.367Z,101110.47
2023-02-22T10:04:41.369Z,101113.56
2023-02-22T10:07:26.074Z,101114.22
2023-02-22T10:10:06.366Z,101110.53
2023-02-22T10:13:18.502Z,101107.50
2023-02-22T10:16:01.884Z,101101.94
2023-02-22T10:19:25.606Z,101105.69
2023-02-22T10:22:34.996Z,101099.69
2023-02-22T10:25:19.342Z,101100.03
2023-02-22T10:28:27.062Z,101100.63
2023-02-22T10:31:12.540Z,101093.53
2023-02-22T10:33:57.677Z,101085.75
2023-02-22T10:36:29.383Z,101092.69
2023-02-22T10:39:28.992Z,101097.94
2023-02-22T10:42:08.066Z,101094.31
2023-02-22T10:44:41.125Z,101091.38
2023-02-22T10:47:17.932Z,101085.88
2023-02-22T10:49:58.609Z,101097.31
2023-02-22T10:52:34.552Z,101090.25
2023-02-22T10:55:15.580Z,101090.03
2023-02-22T10:57:52.690Z,101089.75
2023-02-22T11:00:33.515Z,101088.41
2023-02-22T11:03:21.869Z,101090.66
2023-02-22T11:05:52.588Z,101088.84
2023-02-22T11:08:33.039Z,101089.66
2023-02-22T11:11:26.479Z,101085.59
2023-02-22T11:13:59.630Z,101086.22
2023-02-22T11:16:58.229Z,101082.03
2023-02-22T11:19:33.172Z,101080.84
2023-02-22T11:22:05.784Z,101079.13
2023-02-22T11:24:59.318Z,101081.53
2023-02-22T11:27:43.373Z,101080.81
2023-02-22T11:30:25.463Z,101078.75
2023-02-22T11:33:23.961Z,101064.94
2023-02-22T11:36:08.758Z,101076.72
2023-02-22T11:38:55.194Z,101064.00
2023-02-22T11:41:34.192Z,101062.75
2023-02-22T11:44:23.721Z,101060.19
2023-02-22T11:47:06.953Z,101052.00
2023-02-22T11:49:45.863Z,101050.88
2023-02-22T11:52:45.315Z,101047.38
2023-02-22T11:55:43.123Z,101049.25
2023-02-22T11:58:43.911Z,101050.66
2023-02-22T12:01:22.646Z,101042.44
2023-02-22T12:04:36.432Z,101040.41
2023-02-22T12:07:27.452Z,101039.78
2023-02-22T12:10:05.552Z,101031.28
2023-02-22T12:13:22.350Z,101031.38
2023-02-22T12:16:33.794Z,101027.06
2023-02-22T12:19:43.361Z,101035.50
2023-02-22T12:22:33.541Z,101024.31
2023-02-22T12:25:38.980Z,101030.25
2023-02-22T12:29:05.198Z,101028.88
2023-02-22T12:32:06.420Z,101030.56
2023-02-22T12:35:25.431Z,101027.88
2023-02-22T12:38:31.186Z,101020.78
2023-02-22T12:41:20.842Z,101034.13
2023-02-22T12:44:17.375Z,101033.03
2023-02-22T12:46:55.006Z,101024.19
2023-02-22T12:50:14.896Z,101033.00
2023-02-22T12:53:21.212Z,101024.50
2023-02-22T12:56:03.311Z,101026.34
2023-02-22T12:59:00.176Z,101022.34
2023-02-22T13:01:42.244Z,101021.75
2023-02-22T13:04:20.498Z,101016.22
2023-02-22T13:07:28.022Z,101020.41
2023-02-22T13:11:04.450Z,101010.75
2023-02-22T13:13:55.087Z,101011.25
2023-02-22T13:16:39.521Z,101006.94
2023-02-22T13:19:43.233Z,101005.72
2023-02-22T13:23:30.088Z,101000.50
2023-02-22T13:26:24.683Z,101004.47
2023-02-22T13:29:28.776Z,101001.94
2023-02-22T13:33:08.064Z,101005.22
2023-02-22T13:36:07.496Z,100993.00
2023-02-22T13:39:05.532Z,100997.31
2023-02-22T13:41:56.260Z,100990.22
2023-02-22T13:45:44.430Z,100990.47
2023-02-22T13:49:17.408Z,100992.72
2023-02-22T13:51:58.905Z,100987.56
2023-02-22T13:55:02.762Z,100989.00
2023-02-22T13:57:48.696Z,100985.84
2023-02-22T14:00:23.906Z,100992.63
2023-02-22T14:03:41.214Z,100996.31
2023-02-22T14:06:41.742Z,100993.56
2023-02-22T14:09:56.235Z,100985.13
2023-02-22T14:12:34.603Z,100993.72
2023-02-22T14:15:26.745Z,100991.47
2023-02-22T14:18:05.150Z,100987.38
2023-02-22T14:20:38.537Z,100984.44
2023-02-22T14:23:34.433Z,100978.38
2023-02-22T14:26:31.104Z,100978.97
2023-02-22T14:29:10.218Z,100979.38
2023-02-22T14:31:43.510Z,100972.44
2023-02-22T14:34:49.617Z,100971.91
2023-02-22T14:37:39.291Z,100973.06
2023-02-22T14:40:36.242Z,100970.16
2023-02-22T14:43:22.760Z,100966.59
2023-02-22T14:45:58.704Z,100961.66
2023-02-22T14:48:42.797Z,100958.50
2023-02-22T14:51:29.285Z,100957.56
2023-02-22T14:54:29.162Z,100961.03
2023-02-22T14:57:53.750Z,100963.50
2023-02-22T15:00:38.282Z,100953.25
2023-02-22T15:03:37.470Z,100954.69
2023-02-22T15:06:22.263Z,100951.72
2023-02-22T15:09:36.625Z,100945.38
2023-02-22T15:12:10.734Z,100943.03
2023-02-22T15:14:44.678Z,100942.69
2023-02-22T15:17:24.981Z,100946.00
2023-02-22T15:19:55.322Z,100941.16
2023-02-22T15:22:36.870Z,100941.84
2023-02-22T15:25:12.250Z,100937.06
2023-02-22T15:27:47.888Z,100932.56
2023-02-22T15:30:26.869Z,100934.94
2023-02-22T15:33:04.485Z,100949.28
2023-02-22T15:35:34.104Z,100937.06
2023-02-22T15:38:26.524Z,100947.78
2023-02-22T15:41:03.478Z,100937.16
2023-02-22T15:43:32.798Z,100941.13
2023-02-22T15:46:11.279Z,100935.81
2023-02-22T15:48:41.659Z,100938.19
2023-02-22T15:51:17.249Z,100936.94
2023-02-22T15:53:51.517Z,100937.25
2023-02-22T15:56:31.567Z,100941.94
2023-02-22T15:59:20.512Z,100935.50
2023-02-22T16:01:53.425Z,100927.56
2023-02-22T16:04:31.049Z,100927.59
2023-02-22T16:07:17.241Z,100931.47
2023-02-22T16:09:52.203Z,100929.00
2023-02-22T16:12:22.373Z,100929.13
2023-02-22T16:14:52.654Z,100930.94
2023-02-22T16:17:37.643Z,100927.75
2023-02-22T16:20:14.369Z,100931.06
2023-02-22T16:22:51.543Z,100932.06
2023-02-22T16:25:18.607Z,100920.78
2023-02-22T16:28:27.503Z,100916.47
2023-02-22T16:30:58.785Z,100920.53
2023-02-22T16:33:34.067Z,100915.41
2023-02-22T16:36:08.285Z,100926.16
2023-02-22T16:38:39.669Z,100923.34
2023-02-22T16:41:09.609Z,100922.91
2023-02-22T16:43:40.103Z,100926.91
2023-02-22T16:46:09.972Z,100930.44
2023-02-22T16:48:46.066Z,100925.22
2023-02-22T16:51:32.935Z,100929.78
2023-02-22T16:54:03.192Z,100911.38
2023-02-22T16:56:31.225Z,100917.31
2023-02-22T16:59:12.422Z,100912.63
2023-02-22T17:01:40.532Z,100918.31
2023-02-22T17:04:20.016Z,100918.22
2023-02-22T17:06:50.855Z,100921.63
2023-02-22T17:09:20.948Z,100912.69
2023-02-22T17:11:54.225Z,100917.00
2023-02-22T17:14:34.483Z,100924.69
2023-02-22T17:17:04.509Z,100917.88
2023-02-22T17:19:33.642Z,100913.53
2023-02-22T17:22:06.115Z,100915.13
2023-02-22T17:24:34.420Z,100911.81
2023-02-22T17:27:04.322Z,100914.94
2023-02-22T17:29:34.134Z,100916.41
2023-02-22T17:32:04.974Z,100910.31
2023-02-22T17:34:34.760Z,100909.56
2023-02-22T17:37:05.001Z,100909.84
2023-02-22T17:39:35.066Z,100917.06
2023-02-22T17:42:06.224Z,100914.59
2023-02-22T17:44:36.346Z,100911.13
2023-02-22T17:47:06.288Z,100911.31
2023-02-22T17:49:36.318Z,100909.19
2023-02-22T17:52:06.422Z,100915.84
2023-02-22T17:54:34.647Z,100907.50
2023-02-22T17:57:03.426Z,100903.69
2023-02-22T17:59:31.708Z,100895.75
2023-02-22T18:02:01.145Z,100903.78
2023-02-22T18:04:28.275Z,100905.91
2023-02-22T18:06:56.834Z,100904.03
2023-02-22T18:09:25.277Z,100905.84
2023-02-22T18:11:53.634Z,100902.97
2023-02-22T18:14:22.043Z,100904.56
2023-02-22T18:16:50.486Z,100900.47
2023-02-22T18:19:20.495Z,100896.56
2023-02-22T18:21:50.395Z,100893.28
2023-02-22T18:24:18.913Z,100896.41
2023-02-22T18:26:47.616Z,100897.34
2023-02-22T18:29:15.766Z,100896.72
2023-02-22T18:31:45.570Z,100898.97
2023-02-22T18:34:16.010Z,100898.84
2023-02-22T18:36:46.168Z,100903.06
2023-02-22T18:39:15.833Z,100905.06
2023-02-22T18:41:48.658Z,100896.59
2023-02-22T18:44:18.738Z,100904.94
2023-02-22T18:46:48.737Z,100903.31
2023-02-22T18:49:18.614Z,100901.97
2023-02-22T18:51:48.857Z,100900.06
2023-02-22T18:54:19.886Z,100905.91
2023-02-22T18:56:49.923Z,100891.88
2023-02-22T18:59:19.620Z,100892.19
2023-02-22T19:01:49.627Z,100891.94
2023-02-22T19:04:19.795Z,100895.25
2023-02-22T19:06:49.943Z,100888.41
2023-02-22T19:09:17.950Z,100886.47
2023-02-22T19:11:48.408Z,100883.19
2023-02-22T19:14:19.566Z,100883.75
2023-02-22T19:16:52.541Z,100885.16
2023-02-22T19:19:24.153Z,100881.28
2023-02-22T19:21:56.388Z,100878.25
2023-02-22T19:24:24.018Z,100884.59
2023-02-22T19:26:51.810Z,100887.66
2023-02-22T19:29:23.776Z,100890.13
2023-02-22T19:31:53.909Z,100889.59
2023-02-22T19:34:24.861Z,100885.22
2023-02-22T19:36:56.016Z,100889.09
2023-02-22T19:39:27.023Z,100882.50
2023-02-22T19:41:57.058Z,100884.16
2023-02-22T19:44:28.445Z,100887.16
2023-02-22T19:46:57.988Z,100893.22
2023-02-22T19:49:29.177Z,100890.75
2023-02-22T19:51:58.629Z,100890.19
2023-02-22T19:54:29.189Z,100890.47
2023-02-22T19:56:58.877Z,100886.06
2023-02-22T19:59:29.414Z,100886.03
2023-02-22T20:01:59.239Z,100882.41
2023-02-22T20:04:30.861Z,100875.59
2023-02-22T20:07:00.156Z,100884.91
2023-02-22T20:09:36.559Z,100887.97
2023-02-22T20:12:13.213Z,100888.53
2023-02-22T20:14:42.253Z,100883.59
2023-02-22T20:17:12.998Z,100884.34
2023-02-22T20:19:43.139Z,100877.94
2023-02-22T20:22:12.818Z,100880.09
2023-02-22T20:24:42.641Z,100892.78
2023-02-22T20:27:12.982Z,100882.38
2023-02-22T20:29:42.045Z,100877.72
2023-02-22T20:32:15.097Z,100878.75
2023-02-22T20:34:48.071Z,100887.03
2023-02-22T20:37:18.358Z,100884.56
2023-02-22T20:39:48.278Z,100877.84
2023-02-22T20:42:18.171Z,100884.25
2023-02-22T20:44:50.544Z,100881.03
2023-02-22T20:47:21.116Z,100873.03
2023-02-22T20:49:50.657Z,100871.16
2023-02-22T20:52:20.421Z,100870.66
2023-02-22T20:54:50.267Z,100862.31
2023-02-22T20:57:20.060Z,100876.66
2023-02-22T20:59:49.887Z,100873.69
2023-02-22T21:02:19.611Z,100879.97
2023-02-22T21:04:49.412Z,100880.22
2023-02-22T21:07:22.441Z,100878.56
2023-02-22T21:09:52.609Z,100883.41
2023-02-22T21:12:21.759Z,100880.69
2023-02-22T21:14:51.626Z,100883.47
2023-02-22T21:17:28.713Z,100881.81
2023-02-22T21:19:59.186Z,100887.63
2023-02-22T21:22:29.575Z,100884.13
2023-02-22T21:24:58.888Z,100869.59
2023-02-22T21:27:28.547Z,100863.56
2023-02-22T21:29:58.736Z,100868.25
2023-02-22T21:32:28.599Z,100873.97
2023-02-22T21:34:58.383Z,100869.50
2023-02-22T21:37:28.832Z,100862.13
2023-02-22T21:39:59.111Z,100873.25
2023-02-22T21:42:28.442Z,100864.53
2023-02-22T21:44:58.180Z,100863.59
2023-02-22T21:47:31.155Z,100860.63
2023-02-22T21:50:01.805Z,100863.44
2023-02-22T21:52:31.780Z,100855.19
2023-02-22T21:55:01.496Z,100851.72
2023-02-22T21:57:31.390Z,100850.03
2023-02-22T22:00:02.313Z,100853.06
2023-02-22T22:02:32.314Z,100854.38
2023-02-22T22:05:02.343Z,100844.50
2023-02-22T22:07:32.397Z,100841.81
2023-02-22T22:10:03.741Z,100842.91
2023-02-22T22:12:39.179Z,100838.59
2023-02-22T22:15:10.439Z,100831.97
2023-02-22T22:17:40.576Z,100839.41
2023-02-22T22:20:15.265Z,100841.66
2023-02-22T22:22:46.461Z,100834.72
2023-02-22T22:25:19.515Z,100838.31
2023-02-22T22:27:49.531Z,100835.25
2023-02-22T22:30:19.348Z,100822.06
2023-02-22T22:32:49.164Z,100830.06
2023-02-22T22:35:19.006Z,100833.41
2023-02-22T22:37:51.296Z,100833.09
2023-02-22T22:40:21.504Z,100826.78
2023-02-22T22:42:51.177Z,100823.81
2023-02-22T22:45:21.191Z,100825.22
2023-02-22T22:47:52.276Z,100824.13
2023-02-22T22:50:26.484Z,100828.22
2023-02-22T22:52:56.874Z,100827.13
2023-02-22T22:55:26.855Z,100828.53
2023-02-22T22:57:56.842Z,100822.44
2023-02-22T23:00:30.737Z,100815.56
2023-02-22T23:03:01.376Z,100817.75
2023-02-22T23:05:42.345Z,100812.28
2023-02-22T23:08:13.008Z,100813.06
2023-02-22T23:10:43.128Z,100801.31
2023-02-22T23:13:15.721Z,100810.09
2023-02-22T23:15:47.807Z,100807.09
2023-02-22T23:18:20.868Z,100804.06
2023-02-22T23:20:55.265Z,100805.41
2023-02-22T23:23:27.766Z,100810.41
2023-02-22T23:26:20.479Z,100814.25
2023-02-22T23:28:52.537Z,100814.81
2023-02-22T23:31:24.252Z,100812.31
2023-02-22T23:33:55.807Z,100813.13
2023-02-22T23:36:27.654Z,100810.94
2023-02-22T23:38:57.918Z,100804.38
2023-02-22T23:41:28.720Z,100808.53
2023-02-22T23:44:00.118Z,100811.44
2023-02-22T23:46:32.913Z,100807.13
2023-02-22T23:49:05.420Z,100814.00
2023-02-22T23:51:44.598Z,100807.34
2023-02-22T23:54:20.053Z,100801.34
2023-02-22T23:57:02.473Z,100802.16
2023-02-22T23:59:33.841Z,100806.59
